createdAt,value
2023-04-16T00:00:29.458Z,10.20
2023-04-16T00:02:56.805Z,10.20
2023-04-16T00:05:24.042Z,10.20
2023-04-16T00:07:51.986Z,10.20
2023-04-16T00:10:19.172Z,10.30
2023-04-16T00:12:46.346Z,10.30
2023-04-16T00:15:13.449Z,10.30
2023-04-16T00:17:40.584Z,10.30
2023-04-16T00:20:09.200Z,10.40
2023-04-16T00:22:36.696Z,10.40
2023-04-16T00:25:04.258Z,10.40
2023-04-16T00:27:31.288Z,10.40
2023-04-16T00:29:58.336Z,10.40
2023-04-16T00:32:25.607Z,10.40
2023-04-16T00:34:52.689Z,10.50
2023-04-16T00:37:19.822Z,10.50
2023-04-16T00:39:46.893Z,10.50
2023-04-16T00:42:14.008Z,10.40
2023-04-16T00:47:21.890Z,10.40
2023-04-16T00:49:49.403Z,10.30
2023-04-16T00:52:16.485Z,10.30
2023-04-16T00:54:43.685Z,10.20
2023-04-16T00:57:11.183Z,10.20
2023-04-16T00:59:42.045Z,10.20
2023-04-16T01:02:09.265Z,10.20
2023-04-16T01:04:36.687Z,10.10
2023-04-16T01:07:03.907Z,10.10
2023-04-16T01:09:31.057Z,10.10
2023-04-16T01:11:58.098Z,10.10
2023-04-16T01:14:25.222Z,10.00
2023-04-16T01:16:52.292Z,10.00
2023-04-16T01:19:19.360Z,10.00
2023-04-16T01:21:46.819Z,10.00
2023-04-16T01:24:13.941Z,10.00
2023-04-16T01:26:41.500Z,10.00
2023-04-16T01:29:08.910Z,10.00
2023-04-16T01:31:36.470Z,10.00
2023-04-16T01:34:03.756Z,10.00
2023-04-16T01:36:30.911Z,10.00
2023-04-16T01:38:58.209Z,10.00
2023-04-16T01:41:25.491Z,10.00
2023-04-16T01:43:52.619Z,10.00
2023-04-16T01:46:27.543Z,10.10
2023-04-16T01:48:55.509Z,10.10
2023-04-16T01:51:22.806Z,10.10
2023-04-16T01:53:50.699Z,10.10
2023-04-16T01:56:17.889Z,10.10
2023-04-16T01:58:46.217Z,10.10
2023-04-16T02:01:14.084Z,10.10
2023-04-16T02:03:41.732Z,10.20
2023-04-16T02:06:09.044Z,10.20
2023-04-16T02:08:36.365Z,10.20
2023-04-16T02:11:03.598Z,10.20
2023-04-16T02:13:30.754Z,10.20
2023-04-16T02:15:57.980Z,10.20
2023-04-16T02:18:25.097Z,10.20
2023-04-16T02:20:52.252Z,10.20
2023-04-16T02:23:19.336Z,10.20
2023-04-16T02:25:47.719Z,10.30
2023-04-16T02:28:17.179Z,10.30
2023-04-16T02:30:44.694Z,10.30
2023-04-16T02:33:13.012Z,10.20
2023-04-16T02:35:40.884Z,10.20
2023-04-16T02:38:08.623Z,10.20
2023-04-16T02:40:35.963Z,10.20
2023-04-16T02:43:03.159Z,10.10
2023-04-16T02:45:31.760Z,10.10
2023-04-16T02:47:59.996Z,10.10
2023-04-16T02:50:27.250Z,10.10
2023-04-16T02:52:54.402Z,10.10
2023-04-16T02:55:21.542Z,10.10
2023-04-16T02:57:48.747Z,10.00
2023-04-16T03:00:16.064Z,10.00
2023-04-16T03:02:43.268Z,10.00
2023-04-16T03:05:10.712Z,10.00
2023-04-16T03:07:39.288Z,9.90
2023-04-16T03:10:07.829Z,9.90
2023-04-16T03:12:36.127Z,9.90
2023-04-16T03:15:03.630Z,9.90
2023-04-16T03:17:30.844Z,9.80
2023-04-16T03:19:57.991Z,9.80
2023-04-16T03:22:25.185Z,9.80
2023-04-16T03:24:52.324Z,9.80
2023-04-16T03:27:19.382Z,9.70
2023-04-16T03:29:46.490Z,9.70
2023-04-16T03:32:13.632Z,9.70
2023-04-16T03:34:41.002Z,9.70
2023-04-16T03:37:11.989Z,9.70
2023-04-16T03:39:39.306Z,9.70
2023-04-16T03:42:06.635Z,9.70
2023-04-16T03:44:33.966Z,9.70
2023-04-16T03:47:01.110Z,9.70
2023-04-16T03:49:28.239Z,9.70
2023-04-16T03:51:55.451Z,9.60
2023-04-16T03:54:23.000Z,9.60
2023-04-16T03:56:50.426Z,9.60
2023-04-16T03:59:17.756Z,9.60
2023-04-16T04:01:44.839Z,9.60
2023-04-16T04:04:12.148Z,9.60
2023-04-16T04:06:39.261Z,9.60
2023-04-16T04:09:06.429Z,9.60
2023-04-16T04:11:33.628Z,9.60
2023-04-16T04:14:00.757Z,9.60
2023-04-16T04:16:27.951Z,9.60
2023-04-16T04:18:55.732Z,9.70
2023-04-16T04:21:23.091Z,9.60
2023-04-16T04:23:50.462Z,9.70
2023-04-16T04:26:17.694Z,9.60
2023-04-16T04:28:44.860Z,9.60
2023-04-16T04:31:12.044Z,9.60
2023-04-16T04:33:39.172Z,9.60
2023-04-16T04:36:07.050Z,9.60
2023-04-16T04:38:34.233Z,9.60
2023-04-16T04:41:01.534Z,9.60
2023-04-16T04:43:28.627Z,9.60
2023-04-16T04:45:56.058Z,9.60
2023-04-16T04:48:26.792Z,9.60
2023-04-16T04:50:54.072Z,9.60
2023-04-16T04:53:21.160Z,9.60
2023-04-16T04:55:52.123Z,9.60
2023-04-16T04:58:21.107Z,9.60
2023-04-16T05:00:48.188Z,9.60
2023-04-16T05:03:23.813Z,9.60
2023-04-16T05:05:50.936Z,9.60
2023-04-16T05:08:18.015Z,9.50
2023-04-16T05:10:45.353Z,9.60
2023-04-16T05:13:12.481Z,9.60
2023-04-16T05:15:39.629Z,9.60
2023-04-16T05:18:06.766Z,9.60
2023-04-16T05:20:33.882Z,9.60
2023-04-16T05:23:01.023Z,9.60
2023-04-16T05:25:28.091Z,9.60
2023-04-16T05:27:55.215Z,9.60
2023-04-16T05:30:22.741Z,9.60
2023-04-16T05:32:49.934Z,9.70
2023-04-16T05:35:17.621Z,9.60
2023-04-16T05:37:45.007Z,9.70
2023-04-16T05:40:14.206Z,9.70
2023-04-16T05:42:41.485Z,9.70
2023-04-16T05:45:09.396Z,9.70
2023-04-16T05:47:36.476Z,9.70
2023-04-16T05:50:03.645Z,9.70
2023-04-16T05:52:30.873Z,9.70
2023-04-16T05:55:01.677Z,9.70
2023-04-16T05:57:30.529Z,9.80
2023-04-16T05:59:57.597Z,9.80
2023-04-16T06:02:24.897Z,9.80
2023-04-16T06:04:52.084Z,9.80
2023-04-16T06:07:19.158Z,9.80
2023-04-16T06:09:46.311Z,9.80
2023-04-16T06:12:13.401Z,9.90
2023-04-16T06:14:40.545Z,9.90
2023-04-16T06:17:07.620Z,9.90
2023-04-16T06:19:34.789Z,9.90
2023-04-16T06:22:01.979Z,9.90
2023-04-16T06:24:29.172Z,10.00
2023-04-16T06:26:57.566Z,10.00
2023-04-16T06:29:37.015Z,10.10
2023-04-16T06:32:07.934Z,10.10
2023-04-16T06:34:35.077Z,10.10
2023-04-16T06:37:03.581Z,10.20
2023-04-16T06:39:31.095Z,10.20
2023-04-16T06:41:58.379Z,10.30
2023-04-16T06:44:25.438Z,10.30
2023-04-16T06:46:53.513Z,10.30
2023-04-16T06:49:21.966Z,10.40
2023-04-16T06:51:49.103Z,10.40
2023-04-16T06:54:16.918Z,10.50
2023-04-16T06:56:44.044Z,10.50
2023-04-16T06:59:11.579Z,10.50
2023-04-16T07:01:38.798Z,10.50
2023-04-16T07:04:06.128Z,10.50
2023-04-16T07:06:33.364Z,10.50
2023-04-16T07:09:00.415Z,10.50
2023-04-16T07:11:27.591Z,10.50
2023-04-16T07:13:54.691Z,10.50
2023-04-16T07:16:21.852Z,10.50
2023-04-16T07:18:49.010Z,10.50
2023-04-16T07:21:16.198Z,10.50
2023-04-16T07:23:43.675Z,10.50
2023-04-16T07:26:11.761Z,10.50
2023-04-16T07:28:41.111Z,10.50
2023-04-16T07:31:08.772Z,10.50
2023-04-16T07:33:35.921Z,10.60
2023-04-16T07:36:02.951Z,10.60
2023-04-16T07:38:30.109Z,10.60
2023-04-16T07:40:57.287Z,10.60
2023-04-16T07:43:24.378Z,10.60
2023-04-16T07:45:51.792Z,10.70
2023-04-16T07:48:19.103Z,10.70
2023-04-16T07:50:46.304Z,10.70
2023-04-16T07:53:14.565Z,10.70
2023-04-16T07:55:41.782Z,10.80
2023-04-16T07:58:09.835Z,10.80
2023-04-16T08:00:37.356Z,10.80
2023-04-16T08:03:04.845Z,10.80
2023-04-16T08:05:32.091Z,10.90
2023-04-16T08:07:59.264Z,10.90
2023-04-16T08:10:26.398Z,11.00
2023-04-16T08:12:53.962Z,11.00
2023-04-16T08:15:21.260Z,11.10
2023-04-16T08:17:48.617Z,11.10
2023-04-16T08:20:17.775Z,11.20
2023-04-16T08:22:46.634Z,11.30
2023-04-16T08:25:14.422Z,11.40
2023-04-16T08:27:41.564Z,11.50
2023-04-16T08:30:08.889Z,11.60
2023-04-16T08:32:36.116Z,11.70
2023-04-16T08:35:03.432Z,11.80
2023-04-16T08:37:30.551Z,11.90
2023-04-16T08:39:57.687Z,12.00
2023-04-16T08:42:37.108Z,12.10
2023-04-16T08:45:10.941Z,12.20
2023-04-16T08:47:38.213Z,12.20
2023-04-16T08:50:06.380Z,12.30
2023-04-16T08:52:38.393Z,12.30
2023-04-16T08:55:12.625Z,12.30
2023-04-16T08:58:04.760Z,12.40
2023-04-16T09:00:32.064Z,12.40
2023-04-16T09:03:00.107Z,12.40
2023-04-16T09:05:29.601Z,12.40
2023-04-16T09:07:56.830Z,12.40
2023-04-16T09:10:26.332Z,12.40
2023-04-16T09:12:57.473Z,12.40
2023-04-16T09:15:25.974Z,12.40
2023-04-16T09:17:54.017Z,12.40
2023-04-16T09:20:21.315Z,12.50
2023-04-16T09:22:48.690Z,12.50
2023-04-16T09:25:16.413Z,12.60
2023-04-16T09:27:44.149Z,12.60
2023-04-16T09:30:26.245Z,12.70
2023-04-16T09:33:17.750Z,12.70
2023-04-16T09:35:51.025Z,12.80
2023-04-16T09:38:19.812Z,12.80
2023-04-16T09:40:47.763Z,12.90
2023-04-16T09:43:19.170Z,12.90
2023-04-16T09:45:55.544Z,13.00
2023-04-16T09:48:33.034Z,13.10
2023-04-16T09:51:01.472Z,13.20
2023-04-16T09:53:32.681Z,13.30
2023-04-16T09:56:06.698Z,13.40
2023-04-16T09:58:37.360Z,13.40
2023-04-16T10:01:12.847Z,13.50
2023-04-16T10:03:41.312Z,13.60
2023-04-16T10:06:15.356Z,13.60
2023-04-16T10:08:50.733Z,13.70
2023-04-16T10:11:19.219Z,13.80
2023-04-16T10:13:46.694Z,13.90
2023-04-16T10:16:14.090Z,13.90
2023-04-16T10:18:47.095Z,14.00
2023-04-16T10:21:16.522Z,14.10
2023-04-16T10:23:44.278Z,14.10
2023-04-16T10:26:11.510Z,14.10
2023-04-16T10:28:39.339Z,14.10
2023-04-16T10:31:09.145Z,14.10
2023-04-16T10:33:40.871Z,14.20
2023-04-16T10:36:26.460Z,14.10
2023-04-16T10:38:58.949Z,14.20
2023-04-16T10:41:27.563Z,14.10
2023-04-16T10:44:12.552Z,14.10
2023-04-16T10:46:42.645Z,14.10
2023-04-16T10:49:16.383Z,14.10
2023-04-16T10:51:53.505Z,14.10
2023-04-16T10:54:41.165Z,14.10
2023-04-16T10:57:18.034Z,14.10
2023-04-16T10:59:46.209Z,14.20
2023-04-16T11:02:18.943Z,14.20
2023-04-16T11:04:48.999Z,14.20
2023-04-16T11:07:32.663Z,14.30
2023-04-16T11:10:13.518Z,14.40
2023-04-16T11:12:51.513Z,14.40
2023-04-16T11:15:23.561Z,14.50
2023-04-16T11:17:52.808Z,14.50
2023-04-16T11:20:25.882Z,14.60
2023-04-16T11:22:58.408Z,14.60
2023-04-16T11:25:31.212Z,14.80
2023-04-16T11:28:01.629Z,14.90
2023-04-16T11:30:33.947Z,15.00
2023-04-16T11:33:11.708Z,15.20
2023-04-16T11:35:40.287Z,15.40
2023-04-16T11:38:07.744Z,15.60
2023-04-16T11:40:36.383Z,15.80
2023-04-16T11:43:17.510Z,16.00
2023-04-16T11:46:16.198Z,16.10
2023-04-16T11:48:59.550Z,16.30
2023-04-16T11:51:26.760Z,16.40
2023-04-16T11:53:54.569Z,16.40
2023-04-16T11:56:34.257Z,16.50
2023-04-16T11:59:11.797Z,16.60
2023-04-16T12:01:42.416Z,16.70
2023-04-16T12:04:09.805Z,16.70
2023-04-16T12:06:37.345Z,16.80
2023-04-16T12:09:25.646Z,17.00
2023-04-16T12:11:53.427Z,17.10
2023-04-16T12:14:21.861Z,17.20
2023-04-16T12:16:49.282Z,17.30
2023-04-16T12:19:16.732Z,17.40
2023-04-16T12:21:49.821Z,17.50
2023-04-16T12:24:24.249Z,17.60
2023-04-16T12:27:03.341Z,17.80
2023-04-16T12:29:30.562Z,17.90
2023-04-16T12:31:58.004Z,17.90
2023-04-16T12:34:28.937Z,17.90
2023-04-16T12:37:13.030Z,17.90
2023-04-16T12:39:40.676Z,18.00
2023-04-16T12:42:09.972Z,18.00
2023-04-16T12:44:37.144Z,17.90
2023-04-16T12:47:05.694Z,18.00
2023-04-16T12:49:33.030Z,18.00
2023-04-16T12:52:00.321Z,18.00
2023-04-16T12:54:29.891Z,18.00
2023-04-16T12:56:57.710Z,18.00
2023-04-16T12:59:25.338Z,18.00
2023-04-16T13:01:52.946Z,18.00
2023-04-16T13:04:22.023Z,18.00
2023-04-16T13:06:50.961Z,18.00
2023-04-16T13:09:20.441Z,17.90
2023-04-16T13:11:47.614Z,17.90
2023-04-16T13:14:14.845Z,17.80
2023-04-16T13:16:42.012Z,17.80
2023-04-16T13:19:09.413Z,17.80
2023-04-16T13:21:36.918Z,17.80
2023-04-16T13:24:04.447Z,17.80
2023-04-16T13:26:31.785Z,17.80
2023-04-16T13:28:58.942Z,17.90
2023-04-16T13:31:26.830Z,17.90
2023-04-16T13:33:57.060Z,18.00
2023-04-16T13:36:26.279Z,18.00
2023-04-16T13:38:54.833Z,18.00
2023-04-16T13:41:24.714Z,18.00
2023-04-16T13:43:59.395Z,18.10
2023-04-16T13:46:27.298Z,18.10
2023-04-16T13:48:54.663Z,18.10
2023-04-16T13:51:22.731Z,18.10
2023-04-16T13:53:49.920Z,18.10
2023-04-16T13:56:18.604Z,18.10
2023-04-16T13:58:45.843Z,18.10
2023-04-16T14:01:13.214Z,18.00
2023-04-16T14:03:41.058Z,18.00
2023-04-16T14:06:08.419Z,18.00
2023-04-16T14:08:39.258Z,18.00
2023-04-16T14:11:06.899Z,18.00
2023-04-16T14:13:34.443Z,18.00
2023-04-16T14:16:02.745Z,18.00
2023-04-16T14:19:16.396Z,18.10
2023-04-16T14:21:51.786Z,18.10
2023-04-16T14:24:22.263Z,18.10
2023-04-16T14:26:49.485Z,18.10
2023-04-16T14:29:16.761Z,18.00
2023-04-16T14:31:43.946Z,18.00
2023-04-16T14:34:11.459Z,17.90
2023-04-16T14:36:38.798Z,17.80
2023-04-16T14:39:12.985Z,17.80
2023-04-16T14:41:40.499Z,17.80
2023-04-16T14:44:08.482Z,17.70
2023-04-16T14:46:36.212Z,17.70
2023-04-16T14:49:03.643Z,17.60
2023-04-16T14:51:31.938Z,17.60
2023-04-16T14:53:59.119Z,17.50
2023-04-16T14:56:26.318Z,17.50
2023-04-16T14:58:53.458Z,17.40
2023-04-16T15:01:20.684Z,17.40
2023-04-16T15:03:48.089Z,17.40
2023-04-16T15:06:16.705Z,17.40
2023-04-16T15:08:43.989Z,17.40
2023-04-16T15:11:11.299Z,17.40
2023-04-16T15:13:38.339Z,17.50
2023-04-16T15:16:06.092Z,17.50
2023-04-16T15:18:33.960Z,17.50
2023-04-16T15:21:01.093Z,17.50
2023-04-16T15:23:28.321Z,17.50
2023-04-16T15:25:55.539Z,17.50
2023-04-16T15:28:22.808Z,17.50
2023-04-16T15:30:50.252Z,17.50
2023-04-16T15:33:17.441Z,17.50
2023-04-16T15:35:44.571Z,17.50
2023-04-16T15:38:11.636Z,17.50
2023-04-16T15:40:38.876Z,17.50
2023-04-16T15:43:07.320Z,17.50
2023-04-16T15:45:34.783Z,17.50
2023-04-16T15:48:02.044Z,17.40
2023-04-16T15:50:29.298Z,17.40
2023-04-16T15:52:56.728Z,17.30
2023-04-16T15:55:23.881Z,17.20
2023-04-16T15:57:51.504Z,17.10
2023-04-16T16:00:19.024Z,17.00
2023-04-16T16:02:47.661Z,16.90
2023-04-16T16:05:16.066Z,16.80
2023-04-16T16:07:43.782Z,16.70
2023-04-16T16:10:13.490Z,16.60
2023-04-16T16:12:41.642Z,16.50
2023-04-16T16:15:11.207Z,16.40
2023-04-16T16:17:39.292Z,16.30
2023-04-16T16:20:10.179Z,16.20
2023-04-16T16:22:38.451Z,16.10
2023-04-16T16:25:07.050Z,16.00
2023-04-16T16:27:34.374Z,15.90
2023-04-16T16:30:01.843Z,15.80
2023-04-16T16:32:29.097Z,15.70
2023-04-16T16:34:56.362Z,15.70
2023-04-16T16:37:23.580Z,15.70
2023-04-16T16:39:50.886Z,15.70
2023-04-16T16:42:19.070Z,15.60
2023-04-16T16:44:47.758Z,15.60
2023-04-16T16:47:15.036Z,15.50
2023-04-16T16:49:42.170Z,15.40
2023-04-16T16:52:09.292Z,15.40
2023-04-16T16:54:36.451Z,15.30
2023-04-16T16:57:03.731Z,15.20
2023-04-16T16:59:31.105Z,15.10
2023-04-16T17:01:58.458Z,15.00
2023-04-16T17:04:25.774Z,14.90
2023-04-16T17:06:52.921Z,14.80
2023-04-16T17:09:20.335Z,14.70
2023-04-16T17:11:47.573Z,14.60
2023-04-16T17:14:14.779Z,14.50
2023-04-16T17:16:41.905Z,14.50
2023-04-16T17:19:09.483Z,14.40
2023-04-16T17:21:36.758Z,14.30
2023-04-16T17:24:04.098Z,14.20
2023-04-16T17:26:31.970Z,14.20
2023-04-16T17:28:59.531Z,14.10
2023-04-16T17:31:27.966Z,14.10
2023-04-16T17:33:55.135Z,14.10
2023-04-16T17:36:23.303Z,14.00
2023-04-16T17:38:50.734Z,14.00
2023-04-16T17:41:17.911Z,14.00
2023-04-16T17:43:49.692Z,14.00
2023-04-16T17:46:17.304Z,14.00
2023-04-16T17:48:44.495Z,13.90
2023-04-16T17:51:16.748Z,13.90
2023-04-16T17:53:44.826Z,13.90
2023-04-16T17:56:13.304Z,13.80
2023-04-16T17:58:40.830Z,13.70
2023-04-16T18:01:07.985Z,13.60
2023-04-16T18:03:35.751Z,13.60
2023-04-16T18:06:03.702Z,13.50
2023-04-16T18:08:31.049Z,13.40
2023-04-16T18:10:58.098Z,13.40
2023-04-16T18:13:25.559Z,13.30
2023-04-16T18:15:53.113Z,13.20
2023-04-16T18:18:21.379Z,13.20
2023-04-16T18:20:48.541Z,13.10
2023-04-16T18:23:15.800Z,13.10
2023-04-16T18:25:42.851Z,13.00
2023-04-16T18:28:09.973Z,12.90
2023-04-16T18:30:40.453Z,12.80
2023-04-16T18:33:34.394Z,12.80
2023-04-16T18:35:54.888Z,12.70
2023-04-16T18:38:21.999Z,12.60
2023-04-16T18:40:49.830Z,12.60
2023-04-16T18:43:17.154Z,12.50
2023-04-16T18:45:44.236Z,12.40
2023-04-16T18:48:11.509Z,12.40
2023-04-16T18:50:38.572Z,12.40
2023-04-16T18:53:05.720Z,12.30
2023-04-16T18:55:32.892Z,12.30
2023-04-16T18:58:00.125Z,12.20
2023-04-16T19:00:27.532Z,12.10
2023-04-16T19:02:54.743Z,12.10
2023-04-16T19:05:23.093Z,12.00
2023-04-16T19:07:57.941Z,12.00
2023-04-16T19:10:25.139Z,11.90
2023-04-16T19:12:52.455Z,11.80
2023-04-16T19:15:19.571Z,11.80
2023-04-16T19:17:47.726Z,11.70
2023-04-16T19:20:15.410Z,11.70
2023-04-16T19:22:42.491Z,11.60
2023-04-16T19:25:10.251Z,11.50
2023-04-16T19:27:37.299Z,11.50
2023-04-16T19:30:06.429Z,11.40
2023-04-16T19:32:33.910Z,11.30
2023-04-16T19:35:00.988Z,11.30
2023-04-16T19:37:28.303Z,11.20
2023-04-16T19:39:55.607Z,11.10
2023-04-16T19:42:22.702Z,11.00
2023-04-16T19:44:49.795Z,11.00
2023-04-16T19:47:16.978Z,10.90
2023-04-16T19:49:44.186Z,10.80
2023-04-16T19:52:11.307Z,10.70
2023-04-16T19:54:38.390Z,10.70
2023-04-16T19:57:05.519Z,10.60
2023-04-16T19:59:33.230Z,10.60
2023-04-16T20:02:00.456Z,10.50
2023-04-16T20:04:27.650Z,10.50
2023-04-16T20:06:54.749Z,10.50
2023-04-16T20:09:21.879Z,10.40
2023-04-16T20:11:49.782Z,10.40
2023-04-16T20:14:17.317Z,10.40
2023-04-16T20:16:44.451Z,10.40
2023-04-16T20:19:17.211Z,10.40
2023-04-16T20:21:45.612Z,10.40
2023-04-16T20:24:12.815Z,10.40
2023-04-16T20:26:40.013Z,10.40
2023-04-16T20:29:07.187Z,10.50
2023-04-16T20:31:34.419Z,10.50
2023-04-16T20:34:01.501Z,10.50
2023-04-16T20:36:28.942Z,10.50
2023-04-16T20:38:55.981Z,10.50
2023-04-16T20:41:25.329Z,10.60
2023-04-16T20:43:53.069Z,10.60
2023-04-16T20:46:24.431Z,10.60
2023-04-16T20:48:52.144Z,10.60
2023-04-16T20:51:19.427Z,10.70
2023-04-16T20:53:46.563Z,10.60
2023-04-16T20:56:15.087Z,10.70
2023-04-16T20:58:42.879Z,10.60
2023-04-16T21:01:10.171Z,10.70
2023-04-16T21:03:37.685Z,10.70
2023-04-16T21:06:05.125Z,10.70
2023-04-16T21:08:32.418Z,10.70
2023-04-16T21:10:59.512Z,10.70
2023-04-16T21:13:26.729Z,10.70
2023-04-16T21:15:53.853Z,10.70
2023-04-16T21:18:21.028Z,10.60
2023-04-16T21:20:48.192Z,10.60
2023-04-16T21:23:15.645Z,10.60
2023-04-16T21:25:42.789Z,10.60
2023-04-16T21:28:09.936Z,10.60
2023-04-16T21:30:37.324Z,10.60
2023-04-16T21:33:04.633Z,10.60
2023-04-16T21:35:33.259Z,10.60
2023-04-16T21:38:00.379Z,10.60
2023-04-16T21:40:27.545Z,10.60
2023-04-16T21:42:55.270Z,10.60
2023-04-16T21:45:22.903Z,10.60
2023-04-16T21:47:50.173Z,10.50
2023-04-16T21:50:17.331Z,10.50
2023-04-16T21:52:46.800Z,10.50
2023-04-16T21:55:16.861Z,10.50
2023-04-16T21:57:43.943Z,10.50
2023-04-16T22:00:14.573Z,10.50
2023-04-16T22:02:43.122Z,10.50
2023-04-16T22:05:11.453Z,10.50
2023-04-16T22:07:39.038Z,10.50
2023-04-16T22:10:08.800Z,10.50
2023-04-16T22:12:39.915Z,10.50
2023-04-16T22:15:09.224Z,10.50
2023-04-16T22:17:36.707Z,10.50
2023-04-16T22:20:09.468Z,10.50
2023-04-16T22:22:36.664Z,10.50
2023-04-16T22:25:04.165Z,10.50
2023-04-16T22:27:31.461Z,10.50
2023-04-16T22:29:58.560Z,10.60
2023-04-16T22:32:25.774Z,10.60
2023-04-16T22:34:53.155Z,10.60
2023-04-16T22:37:20.470Z,10.60
2023-04-16T22:39:47.552Z,10.60
2023-04-16T22:42:14.672Z,10.60
2023-04-16T22:44:41.857Z,10.60
2023-04-16T22:47:09.010Z,10.60
2023-04-16T22:49:36.339Z,10.70
2023-04-16T22:52:03.515Z,10.70
2023-04-16T22:54:31.492Z,10.70
2023-04-16T22:56:59.092Z,10.70
2023-04-16T22:59:26.467Z,10.70
2023-04-16T23:01:53.718Z,10.70
2023-04-16T23:04:21.064Z,10.70
2023-04-16T23:06:48.618Z,10.70
2023-04-16T23:09:15.860Z,10.70
2023-04-16T23:11:43.087Z,10.70
2023-04-16T23:14:10.227Z,10.70
2023-04-16T23:16:37.330Z,10.70
2023-04-16T23:19:04.516Z,10.70
2023-04-16T23:21:32.543Z,10.70
2023-04-16T23:23:59.723Z,10.70
2023-04-16T23:26:26.949Z,10.70
2023-04-16T23:28:54.074Z,10.70
2023-04-16T23:31:21.197Z,10.80
2023-04-16T23:33:48.324Z,10.80
2023-04-16T23:36:15.391Z,10.80
2023-04-16T23:38:42.623Z,10.80
2023-04-16T23:41:09.921Z,10.80
2023-04-16T23:43:40.082Z,10.80
2023-04-16T23:46:07.952Z,10.80
2023-04-16T23:48:35.149Z,10.80
2023-04-16T23:51:02.431Z,10.80
2023-04-16T23:53:29.539Z,10.80
2023-04-16T23:55:56.645Z,10.80
2023-04-16T23:58:23.823Z,10.80
